Time;durP1;ratioP1;P1;durP2;ratioP2;P2;SDS_P1;SDS_P2;PMS_P1;PMS_P2;Temp;Humidity;BMP_temperature;BMP_pressure;BME280_temperature;BME280_humidity;BME280_pressure;Samples;Min_cycle;Max_cycle;Signal;HPM_P1;HPM_P2
2023/02/16 00:00:22;;;;;;;;;;;;;;;28.18;55.21;101116.28;5089630;27;69209;-40
2023/02/16 00:02:53;;;;;;;;;;;;;;;28.21;55.40;101118.59;5060872;27;66691;-40
2023/02/16 00:05:30;;;;;;;;;;;;;;;28.24;55.35;101128.97;5092025;27;70623;-40
2023/02/16 00:08:00;;;;;;;;;;;;;;;28.26;55.61;101127.75;5068608;27;66459;-39
2023/02/16 00:10:35;;;;;;;;;;;;;;;28.26;55.89;101124.22;5098579;27;70608;-39
2023/02/16 00:16:11;;;;;;;;;;;;;;;28.33;56.42;101130.47;5090515;27;70383;-38
2023/02/16 00:18:41;;;;;;;;;;;;;;;28.37;56.67;101126.38;5097222;27;65694;-39
2023/02/16 00:21:12;;;;;;;;;;;;;;;28.38;56.19;101130.72;5077479;27;69867;-40
2023/02/16 00:23:42;;;;;;;;;;;;;;;28.38;55.82;101136.13;5096736;27;66250;-40
2023/02/16 00:26:33;;;;;;;;;;;;;;;28.40;55.88;101128.69;5089541;27;70916;-41
2023/02/16 00:29:03;;;;;;;;;;;;;;;28.42;55.88;101139.28;5090781;27;66261;-41
2023/02/16 00:31:33;;;;;;;;;;;;;;;28.43;56.33;101139.09;5091362;27;70376;-51
2023/02/16 00:34:21;;;;;;;;;;;;;;;28.44;56.04;101139.94;5094372;27;66096;-41
2023/02/16 00:36:54;;;;;;;;;;;;;;;28.48;56.03;101142.03;5072507;27;70259;-39
2023/02/16 00:39:25;;;;;;;;;;;;;;;28.47;56.13;101140.38;5070722;27;65770;-39
2023/02/16 00:41:57;;;;;;;;;;;;;;;28.50;56.93;101140.00;5069685;27;70358;-40
2023/02/16 00:44:31;;;;;;;;;;;;;;;28.54;56.87;101140.41;5093335;27;66914;-40
2023/02/16 00:47:17;;;;;;;;;;;;;;;28.56;57.07;101138.38;5058690;27;70440;-39
2023/02/16 00:49:49;;;;;;;;;;;;;;;28.52;55.52;101158.66;5092448;27;65923;-40
2023/02/16 00:52:34;;;;;;;;;;;;;;;28.50;55.14;101161.56;5092114;27;69153;-38
2023/02/16 00:55:07;;;;;;;;;;;;;;;28.52;55.04;101166.75;5071397;27;66340;-38
2023/02/16 00:57:41;;;;;;;;;;;;;;;28.54;55.14;101171.97;5088460;27;70559;-39
2023/02/16 01:00:21;;;;;;;;;;;;;;;28.54;54.91;101175.50;5076495;27;66007;-38
2023/02/16 01:02:54;;;;;;;;;;;;;;;28.58;54.47;101181.34;5078310;27;70557;-39
2023/02/16 01:05:25;;;;;;;;;;;;;;;28.59;54.55;101186.53;5074009;28;65705;-38
2023/02/16 01:13:28;;;;;;;;;;;;;;;28.64;53.89;101203.00;5072568;27;69835;-38
2023/02/16 01:15:58;;;;;;;;;;;;;;;28.66;53.38;101200.06;5074939;27;65940;-39
2023/02/16 01:18:30;;;;;;;;;;;;;;;28.68;53.42;101211.50;5078256;28;69918;-38
2023/02/16 01:21:00;;;;;;;;;;;;;;;28.69;53.66;101218.56;5079134;27;66498;-38
2023/02/16 01:23:32;;;;;;;;;;;;;;;28.70;53.28;101217.56;5077398;27;70256;-39
2023/02/16 01:26:04;;;;;;;;;;;;;;;28.72;53.43;101224.44;5076889;28;66693;-38
2023/02/16 01:28:35;;;;;;;;;;;;;;;28.75;53.54;101223.16;5073752;27;69654;-39
2023/02/16 01:31:06;;;;;;;;;;;;;;;28.76;53.53;101224.03;5074830;27;66909;-39
2023/02/16 01:33:36;;;;;;;;;;;;;;;28.77;52.95;101221.13;5078484;27;70417;-39
2023/02/16 01:36:21;;;;;;;;;;;;;;;28.78;52.87;101225.50;5072804;27;66371;-39
2023/02/16 01:38:51;;;;;;;;;;;;;;;28.80;52.83;101231.53;5073015;27;69348;-38
2023/02/16 01:41:28;;;;;;;;;;;;;;;28.82;52.70;101244.84;5072864;27;66587;-38
2023/02/16 01:44:03;;;;;;;;;;;;;;;28.83;52.66;101241.91;5070755;27;70612;-38
2023/02/16 01:46:33;;;;;;;;;;;;;;;28.85;53.11;101237.16;5072472;27;67027;-38
2023/02/16 01:49:04;;;;;;;;;;;;;;;28.88;52.86;101239.47;5065963;27;70412;-38
2023/02/16 01:51:37;;;;;;;;;;;;;;;28.89;52.98;101240.28;5085425;27;66551;-38
2023/02/16 01:54:12;;;;;;;;;;;;;;;28.91;52.42;101238.25;5078878;27;68947;-38
2023/02/16 01:56:46;;;;;;;;;;;;;;;28.93;52.38;101245.09;5074542;27;66484;-38
2023/02/16 01:59:35;;;;;;;;;;;;;;;28.94;52.78;101241.38;5072328;27;69852;-39
2023/02/16 02:02:14;;;;;;;;;;;;;;;28.97;52.77;101253.63;5091991;27;65725;-38
2023/02/16 02:07:57;;;;;;;;;;;;;;;29.01;52.37;101254.09;5033518;27;66630;-38
2023/02/16 02:10:33;;;;;;;;;;;;;;;29.03;52.49;101246.59;5077081;27;69766;-40
2023/02/16 02:13:10;;;;;;;;;;;;;;;29.05;52.38;101255.38;5090372;27;67191;-39
2023/02/16 02:15:40;;;;;;;;;;;;;;;29.07;52.55;101264.13;5075667;27;69461;-39
2023/02/16 02:18:11;;;;;;;;;;;;;;;29.10;52.40;101258.31;5073477;27;66295;-39
2023/02/16 02:23:54;;;;;;;;;;;;;;;29.13;52.36;101257.94;5092002;27;65671;-39
2023/02/16 02:26:57;;;;;;;;;;;;;;;29.15;52.03;101256.69;5088598;27;70475;-38
2023/02/16 02:29:37;;;;;;;;;;;;;;;29.18;51.78;101252.75;5061348;27;66605;-39
2023/02/16 02:32:33;;;;;;;;;;;;;;;28.83;52.28;101206.81;5079885;27;69528;-38
2023/02/16 02:35:03;;;;;;;;;;;;;;;29.23;51.72;101268.38;5078317;27;66043;-38
2023/02/16 02:37:52;;;;;;;;;;;;;;;29.26;51.80;101262.56;5086260;27;70116;-39
2023/02/16 02:40:35;;;;;;;;;;;;;;;29.27;51.59;101256.97;5074326;27;65621;-38
2023/02/16 02:43:24;;;;;;;;;;;;;;;29.30;51.80;101253.84;5069713;27;70015;-38
2023/02/16 02:46:19;;;;;;;;;;;;;;;29.32;52.12;101240.16;5076644;27;65237;-37
2023/02/16 02:48:49;;;;;;;;;;;;;;;29.34;51.73;101238.91;5070666;27;69960;-39
2023/02/16 02:51:30;;;;;;;;;;;;;;;29.37;51.98;101237.69;5078807;27;66477;-38
2023/02/16 03:03:17;;;;;;;;;;;;;;;29.46;51.79;101214.00;5069714;27;65948;-37
2023/02/16 03:05:52;;;;;;;;;;;;;;;29.48;51.70;101206.53;5094395;27;70299;-38
2023/02/16 03:08:24;;;;;;;;;;;;;;;29.49;51.18;101211.72;5098011;27;66709;-38
2023/02/16 03:14:26;;;;;;;;;;;;;;;29.56;51.03;101209.03;5092231;27;67009;-37
2023/02/16 03:31:08;;;;;;;;;;;;;;;29.70;50.81;101191.88;5090338;27;66384;-38
2023/02/16 03:33:40;;;;;;;;;;;;;;;29.73;50.67;101193.34;5091356;27;70767;-38
2023/02/16 03:36:10;;;;;;;;;;;;;;;29.74;50.57;101190.41;5088864;27;67545;-38
2023/02/16 03:38:40;;;;;;;;;;;;;;;29.77;51.03;101183.75;5095736;27;69818;-38
2023/02/16 03:41:10;;;;;;;;;;;;;;;29.79;51.15;101179.81;5068790;27;65819;-38
2023/02/16 03:43:41;;;;;;;;;;;;;;;29.80;50.85;101170.66;5070968;27;70100;-38
2023/02/16 03:46:11;;;;;;;;;;;;;;;29.83;50.79;101167.53;5084098;27;66516;-39
2023/02/16 03:48:41;;;;;;;;;;;;;;;29.88;50.61;101166.09;5091513;27;70351;-38
2023/02/16 03:51:12;;;;;;;;;;;;;;;29.89;50.88;101160.47;5091085;27;65847;-38
2023/02/16 03:53:42;;;;;;;;;;;;;;;29.91;50.56;101157.56;5083907;27;70300;-38
2023/02/16 03:56:13;;;;;;;;;;;;;;;29.94;50.65;101149.03;5085411;27;66132;-39
2023/02/16 03:58:43;;;;;;;;;;;;;;;29.96;50.56;101138.84;5084779;27;70467;-38
2023/02/16 04:01:13;;;;;;;;;;;;;;;29.99;50.28;101155.47;5086548;27;66570;-39
2023/02/16 04:03:43;;;;;;;;;;;;;;;30.00;50.70;101146.31;5082642;27;70286;-39
2023/02/16 04:06:13;;;;;;;;;;;;;;;30.04;50.47;101141.34;5088588;27;66077;-41
2023/02/16 04:08:43;;;;;;;;;;;;;;;30.06;50.39;101133.84;5089958;27;69926;-38
2023/02/16 04:14:02;;;;;;;;;;;;;;;30.11;50.07;101130.50;5090251;27;70647;-40
2023/02/16 04:16:32;;;;;;;;;;;;;;;30.13;50.63;101126.56;5095149;27;66045;-38
2023/02/16 04:19:02;;;;;;;;;;;;;;;30.14;50.16;101128.22;5095245;27;69761;-39
2023/02/16 04:21:32;;;;;;;;;;;;;;;30.17;50.26;101118.84;5094749;27;67187;-39
2023/02/16 04:24:04;;;;;;;;;;;;;;;30.19;50.45;101123.00;5082652;27;69904;-39
2023/02/16 04:26:34;;;;;;;;;;;;;;;30.21;50.06;101115.50;5091299;27;66414;-38
2023/02/16 04:29:04;;;;;;;;;;;;;;;30.22;50.03;101111.78;5089397;27;69805;-38
2023/02/16 04:31:34;;;;;;;;;;;;;;;30.23;50.62;101118.88;5090550;27;65889;-39
2023/02/16 04:34:05;;;;;;;;;;;;;;;30.26;50.57;101110.34;5085478;27;69963;-38
2023/02/16 04:36:35;;;;;;;;;;;;;;;30.26;50.00;101102.22;5090048;27;66435;-38
2023/02/16 04:39:06;;;;;;;;;;;;;;;30.28;50.22;101089.31;5087117;27;69707;-38
2023/02/16 04:41:37;;;;;;;;;;;;;;;30.28;50.47;101083.91;5099953;27;65454;-38
2023/02/16 04:44:07;;;;;;;;;;;;;;;30.31;50.28;101085.34;5076068;27;70182;-39
2023/02/16 04:46:37;;;;;;;;;;;;;;;30.32;50.22;101083.50;5093536;27;66948;-38
2023/02/16 04:49:07;;;;;;;;;;;;;;;30.34;49.88;101075.97;5099746;27;70141;-39
2023/02/16 04:51:38;;;;;;;;;;;;;;;30.35;50.46;101067.66;5090149;27;66201;-38
2023/02/16 04:54:09;;;;;;;;;;;;;;;30.36;50.20;101073.88;5097709;27;68901;-38
2023/02/16 04:56:39;;;;;;;;;;;;;;;30.38;50.31;101063.69;5091217;27;66559;-38
2023/02/16 04:59:09;;;;;;;;;;;;;;;30.40;50.16;101058.91;5090118;27;69696;-38
2023/02/16 05:01:39;;;;;;;;;;;;;;;30.42;49.90;101051.38;5095841;27;66648;-41
2023/02/16 05:04:10;;;;;;;;;;;;;;;30.44;50.13;101052.00;5074355;27;70120;-39
2023/02/16 05:06:40;;;;;;;;;;;;;;;30.46;50.29;101045.34;5092171;27;66709;-38
2023/02/16 05:09:10;;;;;;;;;;;;;;;30.49;50.15;101030.53;5089511;27;70629;-39
2023/02/16 05:14:44;;;;;;;;;;;;;;;30.54;49.73;101036.16;5090369;27;69974;-38
2023/02/16 05:17:16;;;;;;;;;;;;;;;30.56;50.14;101030.50;5096048;27;66938;-38
2023/02/16 05:19:47;;;;;;;;;;;;;;;30.58;49.99;101018.41;5096742;27;70028;-39
2023/02/16 05:22:19;;;;;;;;;;;;;;;30.60;50.18;101013.63;5096178;27;66960;-39
2023/02/16 05:24:50;;;;;;;;;;;;;;;30.63;50.07;101017.78;5091554;27;69668;-38
2023/02/16 05:27:21;;;;;;;;;;;;;;;30.65;50.00;101013.81;5061891;27;65368;-38
2023/02/16 05:29:52;;;;;;;;;;;;;;;30.67;50.12;101017.16;5094617;27;70323;-40
2023/02/16 05:32:23;;;;;;;;;;;;;;;30.70;50.00;101018.56;5091123;27;65484;-38
2023/02/16 05:34:53;;;;;;;;;;;;;;;30.72;49.49;101003.75;5095742;27;69789;-38
2023/02/16 05:37:23;;;;;;;;;;;;;;;30.74;49.80;101003.56;5098055;27;65782;-38
2023/02/16 05:39:53;;;;;;;;;;;;;;;30.78;49.42;101006.66;5093459;27;70094;-37
2023/02/16 05:42:23;;;;;;;;;;;;;;;30.79;49.30;100992.91;5096016;27;65028;-38
2023/02/16 05:44:55;;;;;;;;;;;;;;;30.82;49.92;100999.81;5094115;27;70085;-38
2023/02/16 05:47:28;;;;;;;;;;;;;;;30.85;49.23;100993.94;5092457;27;66109;-38
2023/02/16 05:49:59;;;;;;;;;;;;;;;30.87;49.68;100986.41;5092466;27;70384;-39
2023/02/16 05:52:29;;;;;;;;;;;;;;;30.89;49.40;100977.03;5089921;27;67005;-39
2023/02/16 05:54:59;;;;;;;;;;;;;;;30.91;49.73;100974.94;5085748;27;69802;-38
2023/02/16 05:57:32;;;;;;;;;;;;;;;30.93;49.13;100969.31;5095581;27;66359;-38
2023/02/16 06:00:03;;;;;;;;;;;;;;;30.95;49.61;100964.50;5091602;27;70398;-39
2023/02/16 06:02:33;;;;;;;;;;;;;;;30.96;49.19;100965.34;5092264;27;66408;-38
2023/02/16 06:05:03;;;;;;;;;;;;;;;30.81;49.68;100939.38;5091207;27;70419;-38
2023/02/16 06:07:34;;;;;;;;;;;;;;;31.01;49.45;100952.81;5093387;27;66840;-39
2023/02/16 06:10:04;;;;;;;;;;;;;;;31.03;49.37;100952.56;5072256;27;69643;-38
2023/02/16 06:12:34;;;;;;;;;;;;;;;31.03;49.39;100947.97;5090643;27;65961;-38
2023/02/16 06:15:04;;;;;;;;;;;;;;;31.05;49.34;100943.16;5072493;27;69844;-39
2023/02/16 06:17:35;;;;;;;;;;;;;;;31.07;48.90;100935.66;5088495;27;66776;-38
2023/02/16 06:20:05;;;;;;;;;;;;;;;31.10;49.31;100937.94;5097395;27;70292;-38
2023/02/16 06:22:35;;;;;;;;;;;;;;;31.11;49.00;100926.03;5093955;27;65486;-39
2023/02/16 06:25:05;;;;;;;;;;;;;;;31.14;48.72;100931.00;5085070;27;69689;-39
2023/02/16 06:27:35;;;;;;;;;;;;;;;31.15;49.04;100921.84;5094792;27;66330;-39
2023/02/16 06:30:07;;;;;;;;;;;;;;;31.19;49.03;100924.09;5075613;27;70007;-39
2023/02/16 06:32:37;;;;;;;;;;;;;;;31.20;48.90;100913.03;5094509;27;67197;-39
2023/02/16 06:35:08;;;;;;;;;;;;;;;31.24;48.50;100910.72;5096605;27;70265;-39
2023/02/16 06:37:38;;;;;;;;;;;;;;;31.26;48.98;100905.88;5089104;27;66694;-38
2023/02/16 06:40:12;;;;;;;;;;;;;;;31.26;48.69;100900.47;5097821;27;70584;-40
2023/02/16 06:42:43;;;;;;;;;;;;;;;31.29;48.80;100900.06;5097489;27;65898;-39
2023/02/16 06:45:13;;;;;;;;;;;;;;;31.32;48.58;100899.59;5092007;27;70085;-39
2023/02/16 06:47:43;;;;;;;;;;;;;;;31.34;48.53;100902.91;5091369;27;66593;-40
2023/02/16 06:50:13;;;;;;;;;;;;;;;31.36;48.32;100900.84;5057070;27;69683;-39
2023/02/16 06:52:44;;;;;;;;;;;;;;;31.38;48.61;100898.75;5056469;27;65780;-38
2023/02/16 06:55:14;;;;;;;;;;;;;;;31.40;48.38;100891.22;5090529;27;72367;-39
2023/02/16 06:57:44;;;;;;;;;;;;;;;31.40;48.10;100885.78;5093483;27;65520;-38
2023/02/16 07:00:15;;;;;;;;;;;;;;;31.41;48.37;100876.59;5087570;27;70276;-38
2023/02/16 07:02:45;;;;;;;;;;;;;;;31.44;48.30;100880.75;5090182;27;66643;-38
2023/02/16 07:05:16;;;;;;;;;;;;;;;31.46;48.34;100878.66;5086097;27;71462;-39
2023/02/16 07:07:46;;;;;;;;;;;;;;;31.47;48.17;100880.28;5073278;27;66226;-38
2023/02/16 07:10:18;;;;;;;;;;;;;;;31.50;48.09;100867.09;5096890;27;69784;-38
2023/02/16 07:12:49;;;;;;;;;;;;;;;31.51;48.11;100863.38;5090767;27;65464;-38
2023/02/16 07:15:19;;;;;;;;;;;;;;;31.52;48.24;100866.91;5089903;27;69861;-38
2023/02/16 07:17:49;;;;;;;;;;;;;;;31.53;48.01;100858.53;5090665;27;66343;-40
2023/02/16 07:20:19;;;;;;;;;;;;;;;31.55;48.33;100859.13;5087869;27;69517;-38
2023/02/16 07:22:49;;;;;;;;;;;;;;;31.55;48.42;100856.44;5086621;27;66938;-38
2023/02/16 07:25:20;;;;;;;;;;;;;;;31.58;48.25;100844.31;5089922;27;69244;-38
2023/02/16 07:27:50;;;;;;;;;;;;;;;31.57;48.25;100840.78;5088447;27;66648;-38
2023/02/16 07:30:20;;;;;;;;;;;;;;;31.61;48.24;100839.25;5071365;27;70600;-38
2023/02/16 07:32:51;;;;;;;;;;;;;;;31.64;48.34;100837.16;5085556;27;65541;-38
2023/02/16 07:35:21;;;;;;;;;;;;;;;31.64;48.15;100832.53;5072654;27;69957;-39
2023/02/16 07:37:51;;;;;;;;;;;;;;;31.51;48.08;100809.16;5084064;27;65755;-38
2023/02/16 07:40:21;;;;;;;;;;;;;;;31.68;47.93;100830.19;5095513;27;69949;-39
2023/02/16 07:42:52;;;;;;;;;;;;;;;31.71;47.78;100821.63;5092883;27;66434;-39
2023/02/16 07:45:22;;;;;;;;;;;;;;;31.74;48.07;100823.88;5086766;27;70358;-39
2023/02/16 07:47:53;;;;;;;;;;;;;;;31.76;47.80;100819.03;5089161;27;66179;-39
2023/02/16 07:50:24;;;;;;;;;;;;;;;31.77;47.64;100809.88;5086750;27;69572;-39
2023/02/16 07:52:54;;;;;;;;;;;;;;;31.78;47.73;100811.50;5094663;27;66927;-38
2023/02/16 07:55:24;;;;;;;;;;;;;;;31.79;47.59;100802.34;5093267;27;70278;-41
2023/02/16 07:57:58;;;;;;;;;;;;;;;31.81;47.93;100808.34;5076186;27;67117;-39
2023/02/16 08:00:28;;;;;;;;;;;;;;;31.85;47.54;100806.03;5095866;27;70485;-39
2023/02/16 08:02:58;;;;;;;;;;;;;;;31.85;47.82;100804.13;5082599;27;67059;-39
2023/02/16 08:05:29;;;;;;;;;;;;;;;31.87;47.80;100804.72;5091766;27;69875;-38
2023/02/16 08:07:59;;;;;;;;;;;;;;;31.89;47.88;100802.59;5091528;27;66268;-38
2023/02/16 08:10:29;;;;;;;;;;;;;;;31.91;47.54;100805.97;5073982;27;69254;-39
2023/02/16 08:12:59;;;;;;;;;;;;;;;31.92;47.26;100801.34;5096735;27;65559;-39
2023/02/16 08:15:29;;;;;;;;;;;;;;;31.93;47.49;100803.00;5087117;27;70445;-40
2023/02/16 08:17:59;;;;;;;;;;;;;;;31.74;47.22;100780.50;5096999;27;66416;-40
2023/02/16 08:20:29;;;;;;;;;;;;;;;31.96;47.70;100806.09;5086280;27;69970;-38
2023/02/16 08:23:20;;;;;;;;;;;;;;;31.98;47.81;100817.56;5089821;27;67702;-39
2023/02/16 08:25:51;;;;;;;;;;;;;;;32.00;47.50;100810.00;5069443;27;70272;-39
2023/02/16 08:28:21;;;;;;;;;;;;;;;32.02;47.50;100810.59;5092579;27;66738;-39
2023/02/16 08:30:52;;;;;;;;;;;;;;;32.04;47.72;100803.06;5079395;27;70437;-43
2023/02/16 08:33:23;;;;;;;;;;;;;;;32.05;47.57;100807.44;5088290;27;65555;-39
2023/02/16 08:35:54;;;;;;;;;;;;;;;32.08;47.43;100802.59;5093959;27;69832;-38
2023/02/16 08:38:24;;;;;;;;;;;;;;;32.10;47.65;100805.94;5086664;27;65301;-38
2023/02/16 08:40:54;;;;;;;;;;;;;;;32.11;47.63;100802.97;5095787;27;69747;-37
2023/02/16 08:43:25;;;;;;;;;;;;;;;32.14;47.32;100812.53;5096304;27;66831;-39
2023/02/16 08:45:56;;;;;;;;;;;;;;;32.17;47.65;100814.78;5088761;27;69075;-38
2023/02/16 08:48:27;;;;;;;;;;;;;;;32.19;47.16;100820.81;5093035;27;66112;-38
2023/02/16 08:50:58;;;;;;;;;;;;;;;32.22;47.22;100814.91;5093090;27;70308;-38
2023/02/16 08:53:32;;;;;;;;;;;;;;;32.25;47.19;100830.75;5086503;27;66828;-38
2023/02/16 08:56:03;;;;;;;;;;;;;;;32.28;47.13;100827.56;5075743;27;69325;-38
2023/02/16 08:58:33;;;;;;;;;;;;;;;32.32;46.84;100834.19;5071015;27;66109;-39
2023/02/16 09:01:05;;;;;;;;;;;;;;;32.34;47.01;100831.25;5068475;27;70421;-39
2023/02/16 09:03:37;;;;;;;;;;;;;;;32.36;47.08;100835.38;5089863;27;66241;-39
2023/02/16 09:06:08;;;;;;;;;;;;;;;32.38;47.20;100835.97;5086974;27;70548;-40
2023/02/16 09:08:38;;;;;;;;;;;;;;;32.41;47.35;100838.22;5092710;27;66227;-38
2023/02/16 09:11:11;;;;;;;;;;;;;;;32.28;47.21;100805.84;5092428;27;69823;-39
2023/02/16 09:13:42;;;;;;;;;;;;;;;32.40;47.32;100830.31;5097646;27;66321;-37
2023/02/16 09:16:14;;;;;;;;;;;;;;;32.19;48.97;100837.09;5086881;27;70371;-40
2023/02/16 09:18:45;;;;;;;;;;;;;;;32.04;49.84;100843.78;5073911;27;66361;-39
2023/02/16 09:21:16;;;;;;;;;;;;;;;31.97;50.44;100847.63;5094007;27;69284;-38
2023/02/16 09:23:47;;;;;;;;;;;;;;;31.90;51.07;100842.25;5094645;27;66246;-39
2023/02/16 09:26:18;;;;;;;;;;;;;;;31.87;51.26;100853.53;5086897;27;70558;-39
2023/02/16 09:28:49;;;;;;;;;;;;;;;31.83;51.40;100858.59;5089129;27;66598;-37
2023/02/16 09:31:27;;;;;;;;;;;;;;;31.80;51.64;100863.66;5076048;27;70042;-37
2023/02/16 09:34:00;;;;;;;;;;;;;;;31.78;51.78;100855.72;5088756;27;66546;-39
2023/02/16 09:36:31;;;;;;;;;;;;;;;31.76;51.84;100874.13;5091271;27;70443;-38
2023/02/16 09:39:01;;;;;;;;;;;;;;;31.75;51.81;100868.94;5063058;27;65602;-38
2023/02/16 09:41:40;;;;;;;;;;;;;;;31.72;51.94;100866.66;5089145;27;70670;-37
2023/02/16 09:44:24;;;;;;;;;;;;;;;31.32;52.46;100816.41;5091687;27;66567;-38
2023/02/16 09:46:57;;;;;;;;;;;;;;;31.72;52.07;100877.53;5087990;27;70559;-39
2023/02/16 09:49:41;;;;;;;;;;;;;;;31.69;52.31;100876.09;5085066;27;66487;-38
2023/02/16 09:52:11;;;;;;;;;;;;;;;31.09;52.11;100787.25;5086344;27;69750;-38
2023/02/16 09:54:48;;;;;;;;;;;;;;;31.68;52.69;100876.31;5091668;27;66339;-37
2023/02/16 09:57:36;;;;;;;;;;;;;;;31.65;52.81;100880.31;5085065;27;70272;-38
2023/02/16 10:00:10;;;;;;;;;;;;;;;31.66;52.75;100883.84;5088926;27;64857;-38
2023/02/16 10:02:59;;;;;;;;;;;;;;;31.65;52.75;100882.19;5057962;27;70003;-38
2023/02/16 10:05:40;;;;;;;;;;;;;;;31.64;52.84;100881.34;5081926;27;66125;-39
2023/02/16 10:08:31;;;;;;;;;;;;;;;31.64;53.04;100885.94;5090059;27;69261;-39
2023/02/16 10:11:04;;;;;;;;;;;;;;;31.65;53.54;100898.44;5090974;27;66692;-37
2023/02/16 10:13:46;;;;;;;;;;;;;;;31.63;53.55;100906.00;5086701;27;69335;-38
2023/02/16 10:16:21;;;;;;;;;;;;;;;31.63;53.68;100911.44;5085728;27;66236;-38
2023/02/16 10:18:54;;;;;;;;;;;;;;;31.65;53.91;100909.28;5073848;27;69493;-38
2023/02/16 10:21:26;;;;;;;;;;;;;;;31.63;53.78;100900.56;5097347;27;66144;-38
2023/02/16 10:24:02;;;;;;;;;;;;;;;31.66;53.98;100906.38;5075607;27;69122;-36
2023/02/16 10:26:32;;;;;;;;;;;;;;;31.65;53.64;100903.88;5085060;27;66596;-39
2023/02/16 10:29:05;;;;;;;;;;;;;;;31.63;53.74;100911.44;5094053;27;70144;-38
2023/02/16 10:31:42;;;;;;;;;;;;;;;31.61;53.91;100908.94;5100563;27;66996;-39
2023/02/16 10:34:17;;;;;;;;;;;;;;;31.60;54.28;100908.09;5101184;27;70366;-38
2023/02/16 10:36:56;;;;;;;;;;;;;;;31.58;53.10;100907.50;5085401;27;66413;-38
2023/02/16 10:39:33;;;;;;;;;;;;;;;31.56;53.38;100906.88;5090022;27;69849;-37
2023/02/16 10:42:26;;;;;;;;;;;;;;;31.56;53.22;100909.59;5077648;27;66026;-39
2023/02/16 10:45:16;;;;;;;;;;;;;;;31.56;54.04;100906.06;5092341;27;69795;-38
2023/02/16 10:47:47;;;;;;;;;;;;;;;31.56;54.97;100906.88;5093511;27;64497;-36
2023/02/16 10:50:36;;;;;;;;;;;;;;;31.56;54.86;100916.91;5078171;27;70137;-38
2023/02/16 10:53:13;;;;;;;;;;;;;;;31.58;55.78;100921.03;5088346;27;66931;-42
2023/02/16 10:55:44;;;;;;;;;;;;;;;31.73;55.49;100917.13;5094313;27;70067;-41
2023/02/16 10:58:35;;;;;;;;;;;;;;;31.84;55.16;100910.97;5084700;27;66190;-40
2023/02/16 11:01:12;;;;;;;;;;;;;;;31.95;55.21;100926.50;5068884;27;70122;-39
2023/02/16 11:03:47;;;;;;;;;;;;;;;32.01;55.34;100928.34;5081573;27;66563;-38
2023/02/16 11:06:24;;;;;;;;;;;;;;;32.04;54.86;100919.75;5091347;27;70057;-39
2023/02/16 11:08:59;;;;;;;;;;;;;;;32.07;54.92;100920.31;5093955;27;65552;-39
2023/02/16 11:11:41;;;;;;;;;;;;;;;32.10;54.45;100928.03;5094870;27;70270;-41
2023/02/16 11:14:22;;;;;;;;;;;;;;;32.11;54.67;100927.78;5065989;27;66120;-38
2023/02/16 11:17:03;;;;;;;;;;;;;;;32.13;54.61;100927.56;5087431;27;70025;-40
2023/02/16 11:19:34;;;;;;;;;;;;;;;32.13;56.67;100927.56;5089367;27;65981;-39
2023/02/16 11:22:06;;;;;;;;;;;;;;;32.15;55.02;100941.72;5083749;27;69619;-39
2023/02/16 11:24:37;;;;;;;;;;;;;;;32.13;54.39;100939.25;5084338;27;66726;-39
2023/02/16 11:27:18;;;;;;;;;;;;;;;32.15;54.75;100947.16;5064590;27;70150;-38
2023/02/16 11:29:52;;;;;;;;;;;;;;;32.13;54.50;100944.69;5087920;27;66087;-39
2023/02/16 11:32:24;;;;;;;;;;;;;;;32.15;54.36;100947.16;5033929;27;69288;-39
2023/02/16 11:34:54;;;;;;;;;;;;;;;32.12;54.10;100956.56;5086194;27;66617;-41
2023/02/16 11:37:27;;;;;;;;;;;;;;;32.13;54.46;100949.28;5067214;27;70987;-38
2023/02/16 11:40:27;;;;;;;;;;;;;;;32.12;54.61;100958.47;5078250;27;66831;-38
2023/02/16 11:42:59;;;;;;;;;;;;;;;32.10;54.39;100960.59;5035100;27;71119;-40
2023/02/16 11:45:32;;;;;;;;;;;;;;;32.10;54.50;100955.16;5043570;27;65371;-38
2023/02/16 11:48:10;;;;;;;;;;;;;;;32.09;54.77;100958.91;5083323;27;69937;-40
2023/02/16 11:50:56;;;;;;;;;;;;;;;32.07;54.44;100952.88;5059603;27;66500;-39
2023/02/16 11:53:28;;;;;;;;;;;;;;;32.05;54.32;100958.56;5033852;27;70030;-41
2023/02/16 11:56:20;;;;;;;;;;;;;;;32.04;54.39;100963.16;5060108;27;65713;-40
2023/02/16 11:59:06;;;;;;;;;;;;;;;32.03;54.26;100966.09;5057438;27;69892;-39
2023/02/16 12:01:36;;;;;;;;;;;;;;;32.01;54.44;100971.75;5089857;27;66905;-40
2023/02/16 12:04:12;;;;;;;;;;;;;;;32.00;54.41;100972.78;5071569;27;70368;-39
2023/02/16 12:07:01;;;;;;;;;;;;;;;31.98;54.51;100974.91;5086246;27;66022;-39
2023/02/16 12:09:38;;;;;;;;;;;;;;;31.97;54.10;100975.97;5093501;27;70191;-38
2023/02/16 12:12:08;;;;;;;;;;;;;;;31.96;54.20;100971.59;5088703;27;66262;-38
2023/02/16 12:14:58;;;;;;;;;;;;;;;31.95;54.03;100975.34;5091022;27;70586;-39
2023/02/16 12:17:46;;;;;;;;;;;;;;;31.94;54.04;100978.31;5094467;27;65452;-39
2023/02/16 12:20:25;;;;;;;;;;;;;;;31.91;54.57;100979.56;5071573;27;69901;-38
2023/02/16 12:23:01;;;;;;;;;;;;;;;31.91;54.25;100985.00;5090501;27;67136;-38
2023/02/16 12:25:32;;;;;;;;;;;;;;;31.90;54.05;100982.47;5089831;27;70494;-38
2023/02/16 12:28:03;;;;;;;;;;;;;;;31.89;54.38;100992.50;5085325;27;65755;-38
2023/02/16 12:30:35;;;;;;;;;;;;;;;31.88;54.06;100996.28;5086385;27;70296;-38
2023/02/16 12:33:06;;;;;;;;;;;;;;;31.86;54.28;100998.38;5087042;27;66461;-40
2023/02/16 12:35:37;;;;;;;;;;;;;;;31.69;55.48;100994.59;5087655;27;69177;-38
2023/02/16 12:38:28;;;;;;;;;;;;;;;31.57;56.94;101006.16;5093937;27;66704;-39
2023/02/16 12:41:20;;;;;;;;;;;;;;;31.49;57.39;101001.03;5092388;27;70005;-38
2023/02/16 12:43:53;;;;;;;;;;;;;;;31.42;58.25;101013.78;5090692;27;66500;-40
2023/02/16 12:46:32;;;;;;;;;;;;;;;31.44;58.75;101014.41;5089412;27;69127;-39
2023/02/16 12:49:03;;;;;;;;;;;;;;;31.41;58.97;101017.56;5091136;27;66107;-38
2023/02/16 12:51:38;;;;;;;;;;;;;;;31.39;59.52;101030.50;5084842;27;70037;-39
2023/02/16 12:54:11;;;;;;;;;;;;;;;31.36;59.85;101025.53;5090617;27;66002;-39
2023/02/16 12:56:44;;;;;;;;;;;;;;;31.34;59.87;101033.00;5091208;27;70435;-40
2023/02/16 12:59:32;;;;;;;;;;;;;;;31.31;60.36;101034.25;5092959;27;66294;-37
2023/02/16 13:02:08;;;;;;;;;;;;;;;31.27;60.14;101041.19;5091802;27;68925;-40
2023/02/16 13:05:07;;;;;;;;;;;;;;;31.27;60.08;101043.06;5087146;27;66453;-38
2023/02/16 13:07:39;;;;;;;;;;;;;;;31.22;60.23;101041.00;5090743;27;69817;-39
2023/02/16 13:10:13;;;;;;;;;;;;;;;31.21;59.99;101043.97;5094067;27;67454;-37
2023/02/16 13:12:43;;;;;;;;;;;;;;;31.20;60.12;101047.69;5096441;27;70507;-37
2023/02/16 13:15:22;;;;;;;;;;;;;;;31.17;61.09;101048.97;5088832;27;66562;-39
2023/02/16 13:17:52;;;;;;;;;;;;;;;31.17;60.75;101054.38;5094190;27;69599;-39
2023/02/16 13:20:23;;;;;;;;;;;;;;;31.17;61.01;101060.66;5094293;27;67414;-40
2023/02/16 13:23:13;;;;;;;;;;;;;;;31.19;60.88;101068.56;5075630;27;69376;-40
2023/02/16 13:26:02;;;;;;;;;;;;;;;31.15;61.26;101070.88;5075482;27;66696;-40
2023/02/16 13:28:35;;;;;;;;;;;;;;;31.15;61.58;101076.28;5093097;27;69138;-40
2023/02/16 13:31:14;;;;;;;;;;;;;;;31.19;61.34;101086.69;5068965;27;66843;-40
2023/02/16 13:33:50;;;;;;;;;;;;;;;31.19;61.83;101079.38;5070519;27;68964;-39
2023/02/16 13:36:35;;;;;;;;;;;;;;;31.21;61.75;101087.31;5092489;27;66386;-38
2023/02/16 13:39:14;;;;;;;;;;;;;;;31.16;62.46;101102.34;5095139;27;69184;-38
2023/02/16 13:42:02;;;;;;;;;;;;;;;31.00;59.96;101102.84;5095146;27;66189;-39
2023/02/16 13:45:02;;;;;;;;;;;;;;;30.72;57.15;101106.66;5086679;27;71183;-39
2023/02/16 13:47:37;;;;;;;;;;;;;;;30.53;55.72;101106.75;5065615;27;65488;-39
2023/02/16 13:50:23;;;;;;;;;;;;;;;30.42;54.91;101116.34;5094648;27;69897;-39
2023/02/16 13:52:57;;;;;;;;;;;;;;;30.35;54.90;101115.53;5094641;27;66327;-41
2023/02/16 13:55:36;;;;;;;;;;;;;;;30.25;53.74;101127.59;5077600;27;70094;-39
2023/02/16 13:58:12;;;;;;;;;;;;;;;30.14;52.16;101125.50;5087743;27;66389;-39